sensor_id;sensor_type;location;lat;lon;timestamp;P1;durP1;ratioP1;P2;durP2;ratioP2
25107;SDS011;13090;53.422;7.670;2023-07-29T00:03:23;4.25;;;3.53;;
25107;SDS011;13090;53.422;7.670;2023-07-29T00:08:44;5.97;;;4.10;;
25107;SDS011;13090;53.422;7.670;2023-07-29T00:14:05;5.85;;;4.55;;
25107;SDS011;13090;53.422;7.670;2023-07-29T00:19:27;4.75;;;3.97;;
25107;SDS011;13090;53.422;7.670;2023-07-29T00:24:51;5.72;;;4.05;;
25107;SDS011;13090;53.422;7.670;2023-07-29T00:30:12;6.35;;;3.67;;
25107;SDS011;13090;53.422;7.670;2023-07-29T00:35:35;4.60;;;3.63;;
25107;SDS011;13090;53.422;7.670;2023-07-29T00:40:56;6.82;;;3.78;;
25107;SDS011;13090;53.422;7.670;2023-07-29T00:46:17;6.30;;;3.67;;
25107;SDS011;13090;53.422;7.670;2023-07-29T00:51:41;4.53;;;3.92;;
25107;SDS011;13090;53.422;7.670;2023-07-29T00:57:03;9.48;;;4.35;;
25107;SDS011;13090;53.422;7.670;2023-07-29T01:02:24;6.38;;;4.18;;
25107;SDS011;13090;53.422;7.670;2023-07-29T01:07:49;6.53;;;4.88;;
25107;SDS011;13090;53.422;7.670;2023-07-29T01:13:16;11.18;;;6.68;;
25107;SDS011;13090;53.422;7.670;2023-07-29T01:18:42;13.13;;;6.65;;
25107;SDS011;13090;53.422;7.670;2023-07-29T01:24:07;11.98;;;7.03;;
25107;SDS011;13090;53.422;7.670;2023-07-29T01:29:28;17.35;;;7.35;;
25107;SDS011;13090;53.422;7.670;2023-07-29T01:34:51;10.35;;;6.88;;
25107;SDS011;13090;53.422;7.670;2023-07-29T01:40:21;11.63;;;7.68;;
25107;SDS011;13090;53.422;7.670;2023-07-29T01:45:46;9.80;;;7.00;;
25107;SDS011;13090;53.422;7.670;2023-07-29T01:51:07;9.80;;;6.95;;
25107;SDS011;13090;53.422;7.670;2023-07-29T01:56:31;8.07;;;6.38;;
25107;SDS011;13090;53.422;7.670;2023-07-29T02:01:52;8.05;;;6.70;;
25107;SDS011;13090;53.422;7.670;2023-07-29T02:07:13;8.40;;;6.63;;
25107;SDS011;13090;53.422;7.670;2023-07-29T02:12:36;8.00;;;5.95;;
25107;SDS011;13090;53.422;7.670;2023-07-29T02:17:56;7.97;;;6.20;;
25107;SDS011;13090;53.422;7.670;2023-07-29T02:23:17;6.80;;;5.60;;
25107;SDS011;13090;53.422;7.670;2023-07-29T02:28:39;7.55;;;6.03;;
25107;SDS011;13090;53.422;7.670;2023-07-29T02:34:00;8.02;;;5.68;;
25107;SDS011;13090;53.422;7.670;2023-07-29T02:39:21;10.95;;;5.72;;
25107;SDS011;13090;53.422;7.670;2023-07-29T02:44:43;6.30;;;5.68;;
25107;SDS011;13090;53.422;7.670;2023-07-29T02:50:04;6.20;;;5.60;;
25107;SDS011;13090;53.422;7.670;2023-07-29T02:55:26;9.93;;;5.78;;
25107;SDS011;13090;53.422;7.670;2023-07-29T03:00:48;8.38;;;5.97;;
25107;SDS011;13090;53.422;7.670;2023-07-29T03:06:09;8.23;;;5.75;;
25107;SDS011;13090;53.422;7.670;2023-07-29T03:11:31;7.85;;;5.35;;
25107;SDS011;13090;53.422;7.670;2023-07-29T03:16:53;8.23;;;5.85;;
25107;SDS011;13090;53.422;7.670;2023-07-29T03:22:14;7.60;;;5.90;;
25107;SDS011;13090;53.422;7.670;2023-07-29T03:27:36;9.70;;;6.05;;
25107;SDS011;13090;53.422;7.670;2023-07-29T03:32:59;8.02;;;5.70;;
25107;SDS011;13090;53.422;7.670;2023-07-29T03:38:20;9.07;;;6.00;;
25107;SDS011;13090;53.422;7.670;2023-07-29T03:43:41;8.98;;;6.20;;
25107;SDS011;13090;53.422;7.670;2023-07-29T03:49:03;8.93;;;6.32;;
25107;SDS011;13090;53.422;7.670;2023-07-29T03:54:24;7.60;;;6.28;;
25107;SDS011;13090;53.422;7.670;2023-07-29T03:59:45;8.15;;;6.35;;
25107;SDS011;13090;53.422;7.670;2023-07-29T04:05:08;7.63;;;5.72;;
25107;SDS011;13090;53.422;7.670;2023-07-29T04:10:29;10.23;;;6.78;;
25107;SDS011;13090;53.422;7.670;2023-07-29T04:15:49;9.43;;;6.53;;
25107;SDS011;13090;53.422;7.670;2023-07-29T04:21:12;9.38;;;7.10;;
25107;SDS011;13090;53.422;7.670;2023-07-29T04:26:32;9.90;;;6.10;;
25107;SDS011;13090;53.422;7.670;2023-07-29T04:31:54;9.15;;;6.45;;
25107;SDS011;13090;53.422;7.670;2023-07-29T04:37:17;9.93;;;6.70;;
25107;SDS011;13090;53.422;7.670;2023-07-29T04:42:37;10.13;;;7.05;;
25107;SDS011;13090;53.422;7.670;2023-07-29T04:47:58;9.50;;;6.68;;
25107;SDS011;13090;53.422;7.670;2023-07-29T04:53:21;12.80;;;6.90;;
25107;SDS011;13090;53.422;7.670;2023-07-29T04:58:41;9.82;;;6.85;;
25107;SDS011;13090;53.422;7.670;2023-07-29T05:04:02;12.15;;;6.82;;
25107;SDS011;13090;53.422;7.670;2023-07-29T05:09:25;10.95;;;7.25;;
25107;SDS011;13090;53.422;7.670;2023-07-29T05:14:48;10.48;;;6.88;;
25107;SDS011;13090;53.422;7.670;2023-07-29T05:20:09;10.25;;;7.20;;
25107;SDS011;13090;53.422;7.670;2023-07-29T05:25:31;8.80;;;6.10;;
25107;SDS011;13090;53.422;7.670;2023-07-29T05:30:52;10.77;;;6.63;;
25107;SDS011;13090;53.422;7.670;2023-07-29T05:36:13;8.43;;;6.45;;
25107;SDS011;13090;53.422;7.670;2023-07-29T05:41:35;7.90;;;5.97;;
25107;SDS011;13090;53.422;7.670;2023-07-29T05:46:56;8.85;;;6.45;;
25107;SDS011;13090;53.422;7.670;2023-07-29T05:52:16;9.60;;;6.32;;
25107;SDS011;13090;53.422;7.670;2023-07-29T05:57:39;8.10;;;5.80;;
25107;SDS011;13090;53.422;7.670;2023-07-29T06:03:03;7.95;;;5.25;;
25107;SDS011;13090;53.422;7.670;2023-07-29T06:08:24;8.00;;;5.22;;
25107;SDS011;13090;53.422;7.670;2023-07-29T06:13:47;6.38;;;4.35;;
25107;SDS011;13090;53.422;7.670;2023-07-29T06:19:07;6.05;;;4.38;;
25107;SDS011;13090;53.422;7.670;2023-07-29T06:24:28;5.65;;;3.83;;
25107;SDS011;13090;53.422;7.670;2023-07-29T06:29:50;7.13;;;4.00;;
25107;SDS011;13090;53.422;7.670;2023-07-29T06:35:11;5.40;;;3.75;;
25107;SDS011;13090;53.422;7.670;2023-07-29T06:40:32;4.43;;;3.38;;
25107;SDS011;13090;53.422;7.670;2023-07-29T06:45:54;4.90;;;3.42;;
25107;SDS011;13090;53.422;7.670;2023-07-29T06:51:15;4.30;;;3.03;;
25107;SDS011;13090;53.422;7.670;2023-07-29T06:56:36;5.43;;;2.95;;
25107;SDS011;13090;53.422;7.670;2023-07-29T07:01:59;4.93;;;3.00;;
25107;SDS011;13090;53.422;7.670;2023-07-29T07:07:20;5.25;;;3.47;;
25107;SDS011;13090;53.422;7.670;2023-07-29T07:12:41;4.70;;;2.80;;
25107;SDS011;13090;53.422;7.670;2023-07-29T07:18:03;4.95;;;2.72;;
25107;SDS011;13090;53.422;7.670;2023-07-29T07:23:24;3.30;;;2.10;;
25107;SDS011;13090;53.422;7.670;2023-07-29T07:28:45;3.30;;;2.03;;
25107;SDS011;13090;53.422;7.670;2023-07-29T07:34:08;2.58;;;1.80;;
25107;SDS011;13090;53.422;7.670;2023-07-29T07:39:32;3.65;;;1.90;;
25107;SDS011;13090;53.422;7.670;2023-07-29T07:44:53;2.35;;;1.50;;
25107;SDS011;13090;53.422;7.670;2023-07-29T07:50:16;3.35;;;1.70;;
25107;SDS011;13090;53.422;7.670;2023-07-29T07:55:36;3.35;;;1.83;;
25107;SDS011;13090;53.422;7.670;2023-07-29T08:01:00;3.42;;;1.75;;
25107;SDS011;13090;53.422;7.670;2023-07-29T08:06:23;3.20;;;1.80;;
25107;SDS011;13090;53.422;7.670;2023-07-29T08:11:43;4.15;;;1.80;;
25107;SDS011;13090;53.422;7.670;2023-07-29T08:17:04;3.75;;;2.08;;
25107;SDS011;13090;53.422;7.670;2023-07-29T08:22:26;3.15;;;1.67;;
25107;SDS011;13090;53.422;7.670;2023-07-29T08:27:47;3.50;;;1.40;;
25107;SDS011;13090;53.422;7.670;2023-07-29T08:33:08;4.10;;;1.58;;
25107;SDS011;13090;53.422;7.670;2023-07-29T08:38:30;2.13;;;1.48;;
25107;SDS011;13090;53.422;7.670;2023-07-29T08:43:52;3.05;;;1.67;;
25107;SDS011;13090;53.422;7.670;2023-07-29T08:49:29;5.63;;;2.47;;
25107;SDS011;13090;53.422;7.670;2023-07-29T08:54:52;3.97;;;2.17;;
25107;SDS011;13090;53.422;7.670;2023-07-29T09:00:15;3.28;;;1.92;;
25107;SDS011;13090;53.422;7.670;2023-07-29T09:05:39;3.33;;;2.10;;
25107;SDS011;13090;53.422;7.670;2023-07-29T09:11:02;4.60;;;1.60;;
25107;SDS011;13090;53.422;7.670;2023-07-29T09:16:23;2.90;;;1.58;;
25107;SDS011;13090;53.422;7.670;2023-07-29T09:21:45;2.72;;;1.90;;
25107;SDS011;13090;53.422;7.670;2023-07-29T09:27:08;2.92;;;1.70;;
25107;SDS011;13090;53.422;7.670;2023-07-29T09:32:29;5.22;;;1.92;;
25107;SDS011;13090;53.422;7.670;2023-07-29T09:37:50;2.97;;;1.73;;
25107;SDS011;13090;53.422;7.670;2023-07-29T09:43:13;2.55;;;1.70;;
25107;SDS011;13090;53.422;7.670;2023-07-29T09:48:38;3.75;;;1.63;;
25107;SDS011;13090;53.422;7.670;2023-07-29T09:54:02;3.53;;;1.48;;
25107;SDS011;13090;53.422;7.670;2023-07-29T09:59:25;3.45;;;1.90;;
25107;SDS011;13090;53.422;7.670;2023-07-29T10:04:46;2.28;;;1.75;;
25107;SDS011;13090;53.422;7.670;2023-07-29T10:10:08;2.50;;;2.00;;
25107;SDS011;13090;53.422;7.670;2023-07-29T10:15:31;2.60;;;1.90;;
25107;SDS011;13090;53.422;7.670;2023-07-29T10:20:54;3.47;;;1.95;;
25107;SDS011;13090;53.422;7.670;2023-07-29T10:26:19;2.88;;;1.60;;
25107;SDS011;13090;53.422;7.670;2023-07-29T10:31:42;3.65;;;1.90;;
25107;SDS011;13090;53.422;7.670;2023-07-29T10:37:04;2.17;;;1.73;;
25107;SDS011;13090;53.422;7.670;2023-07-29T10:42:26;2.63;;;1.60;;
25107;SDS011;13090;53.422;7.670;2023-07-29T10:47:48;6.95;;;2.10;;
25107;SDS011;13090;53.422;7.670;2023-07-29T10:53:09;4.10;;;1.65;;
25107;SDS011;13090;53.422;7.670;2023-07-29T10:58:29;4.10;;;1.85;;
25107;SDS011;13090;53.422;7.670;2023-07-29T11:04:03;3.00;;;1.77;;
25107;SDS011;13090;53.422;7.670;2023-07-29T11:09:52;3.20;;;1.77;;
25107;SDS011;13090;53.422;7.670;2023-07-29T11:15:18;3.10;;;1.80;;
25107;SDS011;13090;53.422;7.670;2023-07-29T11:20:47;4.65;;;1.90;;
25107;SDS011;13090;53.422;7.670;2023-07-29T11:26:10;2.00;;;1.50;;
25107;SDS011;13090;53.422;7.670;2023-07-29T11:31:38;1.63;;;1.20;;
25107;SDS011;13090;53.422;7.670;2023-07-29T11:37:01;2.85;;;1.35;;
25107;SDS011;13090;53.422;7.670;2023-07-29T11:42:22;1.83;;;1.33;;
25107;SDS011;13090;53.422;7.670;2023-07-29T11:47:43;2.70;;;1.30;;
25107;SDS011;13090;53.422;7.670;2023-07-29T11:53:07;4.97;;;3.35;;
25107;SDS011;13090;53.422;7.670;2023-07-29T11:58:30;6.50;;;2.50;;
25107;SDS011;13090;53.422;7.670;2023-07-29T12:03:51;4.00;;;1.65;;
25107;SDS011;13090;53.422;7.670;2023-07-29T12:09:14;1.65;;;1.40;;
25107;SDS011;13090;53.422;7.670;2023-07-29T12:14:35;1.65;;;1.00;;
25107;SDS011;13090;53.422;7.670;2023-07-29T12:19:55;2.38;;;1.23;;
25107;SDS011;13090;53.422;7.670;2023-07-29T12:25:18;1.70;;;1.02;;
25107;SDS011;13090;53.422;7.670;2023-07-29T12:30:41;1.73;;;1.10;;
25107;SDS011;13090;53.422;7.670;2023-07-29T12:36:02;1.75;;;1.10;;
25107;SDS011;13090;53.422;7.670;2023-07-29T12:41:24;1.90;;;0.93;;
25107;SDS011;13090;53.422;7.670;2023-07-29T12:46:45;1.17;;;0.57;;
25107;SDS011;13090;53.422;7.670;2023-07-29T12:52:06;2.70;;;0.80;;
25107;SDS011;13090;53.422;7.670;2023-07-29T12:57:29;1.88;;;0.80;;
25107;SDS011;13090;53.422;7.670;2023-07-29T13:02:49;1.65;;;0.82;;
25107;SDS011;13090;53.422;7.670;2023-07-29T13:08:10;1.88;;;1.10;;
25107;SDS011;13090;53.422;7.670;2023-07-29T13:13:33;6.15;;;1.30;;
25107;SDS011;13090;53.422;7.670;2023-07-29T13:18:54;2.67;;;1.00;;
25107;SDS011;13090;53.422;7.670;2023-07-29T13:24:14;3.33;;;0.82;;
25107;SDS011;13090;53.422;7.670;2023-07-29T13:29:37;3.72;;;1.17;;
25107;SDS011;13090;53.422;7.670;2023-07-29T13:34:59;6.50;;;1.23;;
25107;SDS011;13090;53.422;7.670;2023-07-29T13:40:20;2.85;;;1.00;;
25107;SDS011;13090;53.422;7.670;2023-07-29T13:45:42;1.98;;;1.02;;
25107;SDS011;13090;53.422;7.670;2023-07-29T13:51:03;1.60;;;0.95;;
25107;SDS011;13090;53.422;7.670;2023-07-29T13:56:24;1.65;;;0.82;;
25107;SDS011;13090;53.422;7.670;2023-07-29T14:01:46;3.08;;;0.85;;
25107;SDS011;13090;53.422;7.670;2023-07-29T14:07:07;1.88;;;1.00;;
25107;SDS011;13090;53.422;7.670;2023-07-29T14:12:28;3.08;;;1.08;;
25107;SDS011;13090;53.422;7.670;2023-07-29T14:17:50;3.40;;;1.00;;
25107;SDS011;13090;53.422;7.670;2023-07-29T14:23:11;1.58;;;0.98;;
25107;SDS011;13090;53.422;7.670;2023-07-29T14:28:32;1.00;;;0.90;;
25107;SDS011;13090;53.422;7.670;2023-07-29T14:33:55;1.73;;;1.15;;
25107;SDS011;13090;53.422;7.670;2023-07-29T14:39:16;1.33;;;0.82;;
25107;SDS011;13090;53.422;7.670;2023-07-29T14:44:37;2.70;;;0.75;;
25107;SDS011;13090;53.422;7.670;2023-07-29T14:50:01;1.45;;;1.08;;
25107;SDS011;13090;53.422;7.670;2023-07-29T14:55:22;2.33;;;0.70;;
25107;SDS011;13090;53.422;7.670;2023-07-29T15:00:43;1.20;;;0.82;;
25107;SDS011;13090;53.422;7.670;2023-07-29T15:06:05;0.60;;;0.60;;
25107;SDS011;13090;53.422;7.670;2023-07-29T15:11:29;1.20;;;0.88;;
25107;SDS011;13090;53.422;7.670;2023-07-29T15:16:57;3.88;;;1.23;;
25107;SDS011;13090;53.422;7.670;2023-07-29T15:22:28;2.40;;;1.00;;
25107;SDS011;13090;53.422;7.670;2023-07-29T15:27:54;3.65;;;1.90;;
25107;SDS011;13090;53.422;7.670;2023-07-29T15:33:18;3.30;;;1.90;;
25107;SDS011;13090;53.422;7.670;2023-07-29T15:38:40;4.35;;;2.20;;
25107;SDS011;13090;53.422;7.670;2023-07-29T15:44:01;3.47;;;1.40;;
25107;SDS011;13090;53.422;7.670;2023-07-29T15:49:22;1.98;;;1.42;;
25107;SDS011;13090;53.422;7.670;2023-07-29T15:54:44;2.17;;;1.40;;
25107;SDS011;13090;53.422;7.670;2023-07-29T16:00:06;3.42;;;1.73;;
25107;SDS011;13090;53.422;7.670;2023-07-29T16:05:27;2.42;;;1.38;;
25107;SDS011;13090;53.422;7.670;2023-07-29T16:10:50;4.60;;;1.75;;
25107;SDS011;13090;53.422;7.670;2023-07-29T16:16:11;4.72;;;1.63;;
25107;SDS011;13090;53.422;7.670;2023-07-29T16:21:33;4.05;;;1.40;;
25107;SDS011;13090;53.422;7.670;2023-07-29T16:26:58;4.05;;;1.40;;
25107;SDS011;13090;53.422;7.670;2023-07-29T16:32:25;2.78;;;1.42;;
25107;SDS011;13090;53.422;7.670;2023-07-29T16:37:46;3.15;;;1.50;;
25107;SDS011;13090;53.422;7.670;2023-07-29T16:43:08;4.55;;;1.60;;
25107;SDS011;13090;53.422;7.670;2023-07-29T16:48:28;3.42;;;2.45;;
25107;SDS011;13090;53.422;7.670;2023-07-29T16:53:50;3.97;;;1.75;;
25107;SDS011;13090;53.422;7.670;2023-07-29T16:59:12;2.58;;;1.23;;
25107;SDS011;13090;53.422;7.670;2023-07-29T17:04:32;2.78;;;1.30;;
25107;SDS011;13090;53.422;7.670;2023-07-29T17:09:53;6.03;;;3.30;;
25107;SDS011;13090;53.422;7.670;2023-07-29T17:15:16;3.50;;;1.35;;
25107;SDS011;13090;53.422;7.670;2023-07-29T17:20:37;3.08;;;1.70;;
25107;SDS011;13090;53.422;7.670;2023-07-29T17:26:00;2.72;;;1.45;;
25107;SDS011;13090;53.422;7.670;2023-07-29T17:31:22;2.38;;;1.30;;
25107;SDS011;13090;53.422;7.670;2023-07-29T17:36:43;3.58;;;1.13;;
25107;SDS011;13090;53.422;7.670;2023-07-29T17:42:05;2.25;;;1.50;;
25107;SDS011;13090;53.422;7.670;2023-07-29T17:47:27;2.72;;;1.27;;
25107;SDS011;13090;53.422;7.670;2023-07-29T17:52:48;1.60;;;1.20;;
25107;SDS011;13090;53.422;7.670;2023-07-29T17:58:09;3.08;;;1.20;;
25107;SDS011;13090;53.422;7.670;2023-07-29T18:03:31;2.83;;;1.05;;
25107;SDS011;13090;53.422;7.670;2023-07-29T18:08:52;8.25;;;5.47;;
25107;SDS011;13090;53.422;7.670;2023-07-29T18:14:13;2.78;;;1.50;;
25107;SDS011;13090;53.422;7.670;2023-07-29T18:19:36;2.78;;;1.58;;
25107;SDS011;13090;53.422;7.670;2023-07-29T18:24:56;4.13;;;1.55;;
25107;SDS011;13090;53.422;7.670;2023-07-29T18:30:17;1.67;;;1.17;;
25107;SDS011;13090;53.422;7.670;2023-07-29T18:35:41;3.47;;;1.52;;
25107;SDS011;13090;53.422;7.670;2023-07-29T18:41:02;3.80;;;1.70;;
25107;SDS011;13090;53.422;7.670;2023-07-29T18:46:24;3.22;;;1.40;;
25107;SDS011;13090;53.422;7.670;2023-07-29T18:51:46;4.57;;;1.67;;
25107;SDS011;13090;53.422;7.670;2023-07-29T18:57:06;4.22;;;1.58;;
25107;SDS011;13090;53.422;7.670;2023-07-29T19:02:27;2.75;;;1.10;;
25107;SDS011;13090;53.422;7.670;2023-07-29T19:07:50;2.58;;;1.40;;
25107;SDS011;13090;53.422;7.670;2023-07-29T19:13:11;5.55;;;1.98;;
25107;SDS011;13090;53.422;7.670;2023-07-29T19:18:32;4.22;;;1.85;;
25107;SDS011;13090;53.422;7.670;2023-07-29T19:23:54;5.82;;;1.88;;
25107;SDS011;13090;53.422;7.670;2023-07-29T19:29:15;5.70;;;1.50;;
25107;SDS011;13090;53.422;7.670;2023-07-29T19:34:35;3.70;;;1.55;;
25107;SDS011;13090;53.422;7.670;2023-07-29T19:39:58;3.95;;;1.65;;
25107;SDS011;13090;53.422;7.670;2023-07-29T19:45:19;4.43;;;1.80;;
25107;SDS011;13090;53.422;7.670;2023-07-29T19:50:40;4.28;;;1.60;;
25107;SDS011;13090;53.422;7.670;2023-07-29T19:56:02;4.15;;;1.40;;
25107;SDS011;13090;53.422;7.670;2023-07-29T20:01:23;3.53;;;1.50;;
25107;SDS011;13090;53.422;7.670;2023-07-29T20:06:44;3.17;;;1.52;;
25107;SDS011;13090;53.422;7.670;2023-07-29T20:12:06;7.70;;;1.67;;
25107;SDS011;13090;53.422;7.670;2023-07-29T20:17:27;5.65;;;1.80;;
25107;SDS011;13090;53.422;7.670;2023-07-29T20:22:50;2.35;;;1.85;;
25107;SDS011;13090;53.422;7.670;2023-07-29T20:28:12;4.15;;;2.00;;
25107;SDS011;13090;53.422;7.670;2023-07-29T20:33:33;3.53;;;1.80;;
25107;SDS011;13090;53.422;7.670;2023-07-29T20:38:54;4.68;;;1.83;;
25107;SDS011;13090;53.422;7.670;2023-07-29T20:44:17;3.30;;;1.55;;
25107;SDS011;13090;53.422;7.670;2023-07-29T20:49:38;2.55;;;1.73;;
25107;SDS011;13090;53.422;7.670;2023-07-29T20:55:04;2.50;;;1.77;;
25107;SDS011;13090;53.422;7.670;2023-07-29T21:00:27;3.22;;;1.58;;
25107;SDS011;13090;53.422;7.670;2023-07-29T21:05:47;2.53;;;1.70;;
25107;SDS011;13090;53.422;7.670;2023-07-29T21:11:08;4.85;;;1.92;;
25107;SDS011;13090;53.422;7.670;2023-07-29T21:16:31;4.68;;;1.70;;
25107;SDS011;13090;53.422;7.670;2023-07-29T21:21:52;6.30;;;2.40;;
25107;SDS011;13090;53.422;7.670;2023-07-29T21:27:13;4.95;;;2.30;;
25107;SDS011;13090;53.422;7.670;2023-07-29T21:32:36;4.65;;;2.00;;
25107;SDS011;13090;53.422;7.670;2023-07-29T21:37:57;3.72;;;2.25;;
25107;SDS011;13090;53.422;7.670;2023-07-29T21:43:17;3.90;;;1.90;;
25107;SDS011;13090;53.422;7.670;2023-07-29T21:48:40;4.05;;;2.05;;
25107;SDS011;13090;53.422;7.670;2023-07-29T21:54:01;4.05;;;2.13;;
25107;SDS011;13090;53.422;7.670;2023-07-29T21:59:21;4.53;;;2.25;;
25107;SDS011;13090;53.422;7.670;2023-07-29T22:04:44;5.07;;;2.00;;
25107;SDS011;13090;53.422;7.670;2023-07-29T22:10:05;4.32;;;2.03;;
25107;SDS011;13090;53.422;7.670;2023-07-29T22:15:27;8.70;;;2.28;;
25107;SDS011;13090;53.422;7.670;2023-07-29T22:20:55;2.70;;;2.08;;
25107;SDS011;13090;53.422;7.670;2023-07-29T22:26:17;4.25;;;2.58;;
25107;SDS011;13090;53.422;7.670;2023-07-29T22:31:38;2.70;;;2.35;;
25107;SDS011;13090;53.422;7.670;2023-07-29T22:37:02;3.63;;;1.83;;
25107;SDS011;13090;53.422;7.670;2023-07-29T22:42:26;2.73;;;1.73;;
25107;SDS011;13090;53.422;7.670;2023-07-29T22:47:47;2.95;;;2.03;;
25107;SDS011;13090;53.422;7.670;2023-07-29T22:53:10;2.85;;;1.67;;
25107;SDS011;13090;53.422;7.670;2023-07-29T22:58:32;4.40;;;2.22;;
25107;SDS011;13090;53.422;7.670;2023-07-29T23:03:53;3.10;;;2.00;;
25107;SDS011;13090;53.422;7.670;2023-07-29T23:09:16;2.58;;;2.00;;
25107;SDS011;13090;53.422;7.670;2023-07-29T23:14:36;3.63;;;2.40;;
25107;SDS011;13090;53.422;7.670;2023-07-29T23:19:57;5.22;;;2.05;;
25107;SDS011;13090;53.422;7.670;2023-07-29T23:25:19;4.18;;;1.92;;
25107;SDS011;13090;53.422;7.670;2023-07-29T23:30:40;2.13;;;1.80;;
25107;SDS011;13090;53.422;7.670;2023-07-29T23:36:01;4.65;;;2.20;;
25107;SDS011;13090;53.422;7.670;2023-07-29T23:41:23;2.42;;;2.10;;
25107;SDS011;13090;53.422;7.670;2023-07-29T23:46:44;3.13;;;1.83;;
25107;SDS011;13090;53.422;7.670;2023-07-29T23:52:05;3.75;;;1.80;;
25107;SDS011;13090;53.422;7.670;2023-07-29T23:57:28;3.47;;;2.05;;
